Time;durP1;ratioP1;P1;durP2;ratioP2;P2;SDS_P1;SDS_P2;PMS_P1;PMS_P2;Temp;Humidity;BMP_temperature;BMP_pressure;BME280_temperature;BME280_humidity;BME280_pressure;Samples;Min_cycle;Max_cycle;Signal;HPM_P1;HPM_P2
2024/01/23 00:02:02;;;;;;;23.85;3.78;;;7.10;99.90;;;;;;4972380;28;20098;-70
2024/01/23 00:04:28;;;;;;;17.85;2.92;;;7.10;99.90;;;;;;4989297;28;20507;-70
2024/01/23 00:06:53;;;;;;;21.33;3.65;;;7.10;99.90;;;;;;4989347;28;20053;-70
2024/01/23 00:09:19;;;;;;;27.67;4.20;;;7.10;99.90;;;;;;4990664;28;20090;-70
2024/01/23 00:11:45;;;;;;;20.60;3.65;;;7.10;99.90;;;;;;5039803;28;20084;-70
2024/01/23 00:14:11;;;;;;;22.97;3.27;;;7.00;99.90;;;;;;5061300;28;20046;-70
2024/01/23 00:16:36;;;;;;;15.17;2.40;;;7.10;99.90;;;;;;5027490;28;20056;-70
2024/01/23 00:19:02;;;;;;;20.40;3.13;;;7.10;99.90;;;;;;5051725;28;20068;-70
2024/01/23 00:21:29;;;;;;;15.37;2.63;;;7.10;99.90;;;;;;5046384;28;20030;-70
2024/01/23 00:23:55;;;;;;;26.35;3.13;;;7.20;99.90;;;;;;5046656;28;20073;-70
2024/01/23 00:26:20;;;;;;;22.85;2.75;;;7.10;99.90;;;;;;5047282;28;20072;-70
2024/01/23 00:28:46;;;;;;;19.50;2.73;;;7.10;99.90;;;;;;5030396;28;20089;-70
2024/01/23 00:31:12;;;;;;;16.67;3.53;;;7.10;99.90;;;;;;5031360;28;20771;-70
2024/01/23 00:33:37;;;;;;;14.63;3.47;;;7.10;99.90;;;;;;5048562;28;20624;-71
2024/01/23 00:36:04;;;;;;;16.58;2.97;;;7.10;99.90;;;;;;5049790;28;20045;-70
2024/01/23 00:38:30;;;;;;;22.15;3.90;;;7.10;99.90;;;;;;5048021;28;20021;-70
2024/01/23 00:40:55;;;;;;;20.23;3.55;;;7.10;99.90;;;;;;5044539;28;20049;-71
2024/01/23 00:43:21;;;;;;;15.35;2.78;;;7.00;99.90;;;;;;5046759;28;20033;-70
2024/01/23 00:45:47;;;;;;;17.20;3.13;;;7.00;99.90;;;;;;5027724;28;20033;-70
2024/01/23 00:48:13;;;;;;;12.73;2.97;;;6.90;99.90;;;;;;5048069;28;20301;-71
2024/01/23 00:50:38;;;;;;;13.52;2.80;;;6.90;99.90;;;;;;5046863;28;20045;-71
2024/01/23 00:53:04;;;;;;;25.10;2.80;;;6.90;99.90;;;;;;5044006;28;20034;-70
2024/01/23 00:55:30;;;;;;;16.00;2.63;;;6.80;99.90;;;;;;5027980;28;20108;-70
2024/01/23 00:57:55;;;;;;;19.30;3.30;;;6.80;99.90;;;;;;5048487;28;20699;-70
2024/01/23 01:00:21;;;;;;;18.07;2.80;;;6.80;99.90;;;;;;5045170;28;20052;-70
2024/01/23 01:02:46;;;;;;;20.23;2.33;;;6.80;99.90;;;;;;5046799;28;20029;-70
2024/01/23 01:05:12;;;;;;;18.37;4.20;;;6.90;99.90;;;;;;5045818;28;20049;-70
2024/01/23 01:07:38;;;;;;;20.20;4.77;;;6.90;99.90;;;;;;5044360;28;20048;-71
2024/01/23 01:10:04;;;;;;;16.43;3.33;;;6.90;99.90;;;;;;5043166;28;20566;-70
2024/01/23 01:12:30;;;;;;;;;;;6.90;99.90;;;;;;5019044;28;20619;-71
2024/01/23 01:14:55;;;;;;;17.50;2.00;;;7.00;99.90;;;;;;5007813;28;19944;-71
2024/01/23 01:17:21;;;;;;;16.73;2.57;;;6.90;99.90;;;;;;5024686;28;20033;-70
2024/01/23 01:19:48;;;;;;;21.37;3.63;;;6.90;99.90;;;;;;4992329;28;20398;-71
2024/01/23 01:22:14;;;;;;;13.27;2.53;;;6.90;99.90;;;;;;5011215;28;20307;-71
2024/01/23 01:24:39;;;;;;;14.07;2.57;;;6.90;99.90;;;;;;5009910;28;20101;-69
2024/01/23 01:27:05;;;;;;;15.60;2.17;;;6.80;99.90;;;;;;4994125;28;20097;-70
2024/01/23 01:29:31;;;;;;;19.42;3.05;;;6.90;99.90;;;;;;5012370;28;20030;-70
2024/01/23 01:31:57;;;;;;;16.50;2.10;;;6.80;99.90;;;;;;5029925;28;20041;-70
2024/01/23 01:34:23;;;;;;;14.63;2.43;;;6.80;99.90;;;;;;5011160;28;20136;-69
2024/01/23 01:36:48;;;;;;;23.20;3.00;;;6.80;99.90;;;;;;5012566;28;20041;-70
2024/01/23 01:39:14;;;;;;;20.43;3.30;;;6.90;99.90;;;;;;5012318;28;20025;-70
2024/01/23 01:41:40;;;;;;;15.65;3.08;;;6.90;99.90;;;;;;5013096;28;20073;-70
2024/01/23 01:44:07;;;;;;;18.70;3.63;;;7.00;99.90;;;;;;4997935;28;20030;-71
2024/01/23 01:46:33;;;;;;;18.60;3.13;;;7.10;99.90;;;;;;5029390;28;20037;-70
2024/01/23 01:48:58;;;;;;;31.13;3.85;;;7.10;99.90;;;;;;4995881;28;20046;-70
2024/01/23 01:51:26;;;;;;;22.27;3.63;;;7.10;99.90;;;;;;4995069;28;20041;-70
2024/01/23 01:53:52;;;;;;;21.05;2.85;;;7.10;99.90;;;;;;5024350;28;20056;-70
2024/01/23 01:56:19;;;;;;;18.70;3.70;;;7.10;99.90;;;;;;5032354;28;20050;-71
2024/01/23 01:58:46;;;;;;;15.20;2.70;;;7.10;99.90;;;;;;5027602;28;20496;-71
2024/01/23 02:01:15;;;;;;;21.83;2.67;;;7.10;99.90;;;;;;5010173;28;20041;-71
2024/01/23 02:03:41;;;;;;;21.85;3.65;;;7.10;99.90;;;;;;5009569;28;20037;-70
2024/01/23 02:06:08;;;;;;;12.80;2.50;;;7.10;99.90;;;;;;5024609;28;20045;-71
2024/01/23 02:08:38;;;;;;;20.05;3.55;;;7.00;99.90;;;;;;5008449;28;20092;-71
2024/01/23 02:11:04;;;;;;;20.63;3.75;;;7.00;99.90;;;;;;5027054;28;20053;-70
2024/01/23 02:13:29;;;;;;;19.35;3.45;;;7.00;99.90;;;;;;5024720;28;20049;-70
2024/01/23 02:15:55;;;;;;;25.43;3.73;;;6.90;99.90;;;;;;5025122;28;20071;-71
2024/01/23 02:18:21;;;;;;;25.07;3.87;;;6.90;99.90;;;;;;5043062;28;20061;-70
2024/01/23 02:20:47;;;;;;;20.48;2.95;;;6.80;99.90;;;;;;5003830;28;20042;-70
2024/01/23 02:23:16;;;;;;;23.77;3.90;;;6.80;99.90;;;;;;5043881;28;20029;-70
2024/01/23 02:25:43;;;;;;;17.02;3.65;;;6.70;99.90;;;;;;5043943;28;20278;-70
2024/01/23 02:28:10;;;;;;;17.83;2.53;;;6.70;99.90;;;;;;5042035;28;20033;-70
2024/01/23 02:30:36;;;;;;;22.80;4.07;;;6.60;99.90;;;;;;5048258;28;20047;-71
2024/01/23 02:33:03;;;;;;;19.95;3.03;;;6.60;99.90;;;;;;5043081;28;20037;-70
2024/01/23 02:35:33;;;;;;;21.95;3.63;;;6.60;99.90;;;;;;5031659;28;20095;-70
2024/01/23 02:37:59;;;;;;;22.10;4.25;;;6.50;99.90;;;;;;5006255;28;20042;-71
2024/01/23 02:40:25;;;;;;;24.98;4.15;;;6.50;99.90;;;;;;5040583;28;20052;-70
2024/01/23 02:42:51;;;;;;;14.52;3.42;;;6.50;99.90;;;;;;5023844;28;20057;-71
2024/01/23 02:45:16;;;;;;;25.73;3.17;;;6.50;99.90;;;;;;5038325;28;20065;-71
2024/01/23 02:47:42;;;;;;;20.57;2.83;;;6.50;99.90;;;;;;5039453;28;20131;-70
2024/01/23 02:50:08;;;;;;;18.27;2.23;;;6.50;99.90;;;;;;5019481;28;20272;-71
2024/01/23 02:52:34;;;;;;;;;;;6.40;99.90;;;;;;5041703;28;20034;-71
2024/01/23 02:55:00;;;;;;;16.30;2.50;;;6.40;99.90;;;;;;5040364;28;20443;-70
2024/01/23 02:57:26;;;;;;;19.13;3.25;;;6.30;99.90;;;;;;5024032;28;20041;-71
2024/01/23 02:59:55;;;;;;;18.00;2.53;;;6.30;99.90;;;;;;5043123;28;20049;-70
2024/01/23 03:02:22;;;;;;;18.65;3.15;;;6.30;99.90;;;;;;5025774;28;20095;-70
2024/01/23 03:04:47;;;;;;;15.43;2.65;;;6.30;99.90;;;;;;5023117;28;20041;-70
2024/01/23 03:07:14;;;;;;;16.42;2.65;;;6.30;99.90;;;;;;5042113;28;20037;-71
2024/01/23 03:09:41;;;;;;;19.80;3.13;;;6.20;99.90;;;;;;5041540;28;20079;-71
2024/01/23 03:12:16;;;;;;;;;;;6.20;99.90;;;;;;5011607;28;20331;-70
2024/01/23 03:14:46;;;;;;;17.38;2.80;;;6.20;99.90;;;;;;5022290;28;19921;-70
2024/01/23 03:17:13;;;;;;;22.92;3.60;;;6.20;99.90;;;;;;5008066;28;20061;-71
2024/01/23 03:19:39;;;;;;;10.80;3.72;;;6.20;99.90;;;;;;5022846;28;20036;-70
2024/01/23 03:22:05;;;;;;;17.05;2.40;;;6.20;99.90;;;;;;5036092;28;20037;-71
2024/01/23 03:24:31;;;;;;;17.70;2.83;;;6.10;99.90;;;;;;5023320;28;20096;-70
2024/01/23 03:26:58;;;;;;;24.20;3.58;;;6.20;99.90;;;;;;5027874;28;20090;-70
2024/01/23 03:29:25;;;;;;;22.50;3.13;;;6.20;99.90;;;;;;5023076;28;20040;-71
2024/01/23 03:31:51;;;;;;;21.05;2.92;;;6.30;99.90;;;;;;5026519;28;20034;-70
2024/01/23 03:34:18;;;;;;;28.52;4.93;;;6.30;99.90;;;;;;5026041;28;20018;-70
2024/01/23 03:36:44;;;;;;;19.58;3.50;;;6.40;99.90;;;;;;5009431;28;20045;-70
2024/01/23 03:39:10;;;;;;;20.87;3.50;;;6.40;99.90;;;;;;5025958;28;20505;-71
2024/01/23 03:41:37;;;;;;;28.30;4.30;;;6.50;99.90;;;;;;5040299;28;20041;-71
2024/01/23 03:44:05;;;;;;;23.63;4.38;;;6.60;99.90;;;;;;5025327;28;20421;-71
2024/01/23 03:46:31;;;;;;;24.08;3.80;;;6.60;99.90;;;;;;5041257;28;20052;-70
2024/01/23 03:48:57;;;;;;;21.42;4.43;;;6.60;99.90;;;;;;5022222;28;20109;-71
2024/01/23 03:51:22;;;;;;;23.60;3.17;;;6.60;99.90;;;;;;5039544;28;20069;-71
2024/01/23 03:53:48;;;;;;;24.80;5.00;;;6.70;99.90;;;;;;5040925;28;20036;-71
2024/01/23 03:56:13;;;;;;;31.53;5.70;;;6.60;99.90;;;;;;5044452;28;20061;-71
2024/01/23 03:58:41;;;;;;;30.87;5.03;;;6.70;99.90;;;;;;5042614;28;20041;-71
2024/01/23 04:01:07;;;;;;;27.40;4.28;;;6.70;99.90;;;;;;5039748;28;20308;-70
2024/01/23 04:03:32;;;;;;;19.98;4.25;;;6.70;99.90;;;;;;5005086;28;20029;-70
2024/01/23 04:05:58;;;;;;;20.77;3.58;;;6.70;99.90;;;;;;5038318;28;20045;-71
2024/01/23 04:08:24;;;;;;;17.30;3.53;;;6.70;99.90;;;;;;5022337;28;20073;-71
2024/01/23 04:10:50;;;;;;;31.60;4.57;;;6.70;99.90;;;;;;5021525;28;20037;-71
2024/01/23 04:13:15;;;;;;;26.02;5.50;;;6.60;99.90;;;;;;5007209;28;20044;-70
2024/01/23 04:15:41;;;;;;;22.50;3.65;;;6.70;99.90;;;;;;5037760;28;20041;-71
2024/01/23 04:18:07;;;;;;;24.90;3.20;;;6.70;99.90;;;;;;5039133;28;20096;-71
2024/01/23 04:20:32;;;;;;;21.30;3.93;;;6.70;99.90;;;;;;5019965;28;20037;-70
2024/01/23 04:22:59;;;;;;;17.97;3.67;;;6.70;99.90;;;;;;5020988;28;20040;-71
2024/01/23 04:25:24;;;;;;;21.27;3.90;;;6.70;99.90;;;;;;5017670;28;20276;-71
2024/01/23 04:27:52;;;;;;;23.83;3.97;;;6.80;99.90;;;;;;5023846;28;20185;-71
2024/01/23 04:30:18;;;;;;;22.80;4.07;;;6.80;99.90;;;;;;5024982;28;20041;-71
2024/01/23 04:32:45;;;;;;;27.08;3.58;;;6.80;99.90;;;;;;5038571;28;20529;-70
2024/01/23 04:35:11;;;;;;;24.17;3.25;;;6.90;99.90;;;;;;5042303;28;20513;-71
2024/01/23 04:37:37;;;;;;;26.55;4.20;;;6.90;99.90;;;;;;5008739;28;20071;-71
2024/01/23 04:40:07;;;;;;;25.23;3.43;;;6.90;99.90;;;;;;5024713;28;20033;-71
2024/01/23 04:42:33;;;;;;;16.00;4.00;;;6.90;99.90;;;;;;5050075;28;20033;-71
2024/01/23 04:44:59;;;;;;;27.35;5.95;;;6.90;99.90;;;;;;5023085;28;20051;-70
2024/01/23 04:47:25;;;;;;;22.55;4.40;;;6.90;99.90;;;;;;5025374;28;20112;-71
2024/01/23 04:49:53;;;;;;;21.50;3.35;;;6.80;99.90;;;;;;5024615;28;20037;-71
2024/01/23 04:52:19;;;;;;;20.88;3.65;;;6.80;99.90;;;;;;5024938;28;20048;-71
2024/01/23 04:54:45;;;;;;;22.57;3.47;;;6.70;99.90;;;;;;5029929;28;20041;-71
2024/01/23 04:57:11;;;;;;;19.00;4.47;;;6.80;99.90;;;;;;5043909;28;20041;-71
2024/01/23 04:59:37;;;;;;;22.50;4.57;;;6.70;99.90;;;;;;5025729;28;20036;-70
2024/01/23 05:02:04;;;;;;;33.53;4.80;;;6.80;99.90;;;;;;5023032;28;20044;-71
2024/01/23 05:04:30;;;;;;;25.83;4.43;;;6.80;99.90;;;;;;5027958;28;20279;-70
2024/01/23 05:06:55;;;;;;;26.03;4.47;;;6.70;99.90;;;;;;5040412;28;20042;-71
2024/01/23 05:09:21;;;;;;;26.53;2.97;;;6.70;99.90;;;;;;5025830;28;20295;-70
2024/01/23 05:11:47;;;;;;;20.87;4.70;;;6.80;99.90;;;;;;5023301;28;20489;-70
2024/01/23 05:14:16;;;;;;;28.25;4.63;;;6.80;99.90;;;;;;5022792;28;20284;-71
2024/01/23 05:16:41;;;;;;;31.00;5.30;;;6.80;99.90;;;;;;5039785;28;20077;-71
2024/01/23 05:19:07;;;;;;;26.87;4.23;;;6.80;99.90;;;;;;5023216;28;20058;-71
2024/01/23 05:21:33;;;;;;;24.38;4.13;;;6.80;99.90;;;;;;5021391;28;20457;-71
2024/01/23 05:24:00;;;;;;;20.90;4.10;;;6.80;99.90;;;;;;5020809;28;20094;-70
2024/01/23 05:26:25;;;;;;;25.88;3.42;;;6.80;99.90;;;;;;5023947;28;20037;-70
2024/01/23 05:28:51;;;;;;;25.57;3.63;;;6.80;99.90;;;;;;5034400;28;20033;-71
2024/01/23 05:31:16;;;;;;;30.70;5.17;;;6.80;99.90;;;;;;5040772;28;20117;-71
2024/01/23 05:33:42;;;;;;;26.83;4.70;;;6.80;99.90;;;;;;5037745;28;20043;-70
2024/01/23 05:36:08;;;;;;;22.17;3.30;;;6.80;99.90;;;;;;5022352;28;20688;-70
2024/01/23 05:38:33;;;;;;;25.03;4.77;;;6.80;99.90;;;;;;5023615;28;20053;-70
2024/01/23 05:40:59;;;;;;;33.20;5.63;;;6.90;99.90;;;;;;5022159;28;20061;-71
2024/01/23 05:43:25;;;;;;;26.47;4.50;;;6.90;99.90;;;;;;5038523;28;20101;-71
2024/01/23 05:45:53;;;;;;;23.07;4.37;;;6.90;99.90;;;;;;5033092;28;20033;-71
2024/01/23 05:48:18;;;;;;;25.83;4.45;;;6.90;99.90;;;;;;5008321;28;20104;-71
2024/01/23 05:50:44;;;;;;;20.27;3.92;;;6.90;99.90;;;;;;5046431;28;20045;-71
2024/01/23 05:53:10;;;;;;;35.90;5.33;;;6.90;99.90;;;;;;5054725;28;20456;-70
2024/01/23 05:55:35;;;;;;;17.83;3.20;;;6.80;99.90;;;;;;5026215;28;20096;-70
2024/01/23 05:58:01;;;;;;;40.10;5.10;;;6.80;99.90;;;;;;5007316;28;20094;-70
2024/01/23 06:00:26;;;;;;;21.63;5.32;;;6.80;99.90;;;;;;5003623;28;20045;-71
2024/01/23 06:02:52;;;;;;;26.87;6.07;;;6.80;99.90;;;;;;5040099;28;20125;-70
2024/01/23 06:05:19;;;;;;;36.23;5.47;;;6.80;99.90;;;;;;5005994;28;20025;-71
2024/01/23 06:07:49;;;;;;;25.70;5.13;;;6.80;99.90;;;;;;5040707;28;20193;-70
2024/01/23 06:10:18;;;;;;;29.52;6.15;;;6.80;99.90;;;;;;5003305;28;20029;-70
2024/01/23 06:12:44;;;;;;;32.28;4.80;;;6.80;99.90;;;;;;5016044;28;20072;-70
2024/01/23 06:15:10;;;;;;;34.47;6.65;;;6.80;99.90;;;;;;5037093;28;20033;-71
2024/01/23 06:17:36;;;;;;;29.52;5.82;;;6.80;99.90;;;;;;5033998;28;20044;-71
2024/01/23 06:20:04;;;;;;;;;;;6.80;99.90;;;;;;5017791;28;20045;-71
2024/01/23 06:22:30;;;;;;;31.95;6.15;;;6.80;99.90;;;;;;5020131;28;19929;-71
2024/01/23 06:25:03;;;;;;;29.90;5.50;;;6.80;99.90;;;;;;5036603;28;20041;-71
2024/01/23 06:27:29;;;;;;;38.00;5.68;;;6.80;99.90;;;;;;5000193;28;20120;-71
2024/01/23 06:29:55;;;;;;;32.85;5.78;;;6.80;99.90;;;;;;5035924;28;20079;-71
2024/01/23 06:32:21;;;;;;;27.13;5.38;;;6.80;99.90;;;;;;5035109;28;20041;-72
2024/01/23 06:34:46;;;;;;;34.20;6.27;;;6.80;99.90;;;;;;5039061;28;20048;-70
2024/01/23 06:37:12;;;;;;;31.73;5.70;;;6.90;99.90;;;;;;5005528;28;20048;-71
2024/01/23 06:39:39;;;;;;;32.63;6.30;;;6.90;99.90;;;;;;5025299;28;20057;-70
2024/01/23 06:42:04;;;;;;;28.88;5.40;;;6.80;99.90;;;;;;5026841;28;20455;-71
2024/01/23 06:44:30;;;;;;;28.37;5.47;;;6.90;99.90;;;;;;5025042;28;20105;-70
2024/01/23 06:46:56;;;;;;;30.50;4.65;;;6.80;99.90;;;;;;5024863;28;20033;-70
2024/01/23 06:49:21;;;;;;;44.27;5.90;;;6.80;99.90;;;;;;5020754;28;20116;-73
2024/01/23 06:51:47;;;;;;;25.70;5.37;;;6.80;99.90;;;;;;5043141;28;20033;-70
2024/01/23 06:54:12;;;;;;;34.63;5.87;;;6.90;99.90;;;;;;5025982;28;20037;-70
2024/01/23 06:56:39;;;;;;;26.57;4.03;;;6.90;99.90;;;;;;5055569;28;20359;-71
2024/01/23 06:59:04;;;;;;;36.03;5.57;;;6.90;99.90;;;;;;5010848;28;20880;-71
2024/01/23 07:01:30;;;;;;;32.10;4.90;;;6.90;99.90;;;;;;5023610;28;20101;-70
2024/01/23 07:03:56;;;;;;;31.58;5.50;;;6.90;99.90;;;;;;5025563;28;20045;-71
2024/01/23 07:06:22;;;;;;;30.83;6.45;;;6.90;99.90;;;;;;5043359;28;20029;-71
2024/01/23 07:08:48;;;;;;;27.58;5.10;;;6.90;99.90;;;;;;5044037;28;20041;-71
2024/01/23 07:11:13;;;;;;;27.27;5.03;;;6.90;99.90;;;;;;5041537;28;20033;-71
2024/01/23 07:13:39;;;;;;;33.40;5.20;;;6.90;99.90;;;;;;5055918;28;20965;-71
2024/01/23 07:16:06;;;;;;;35.67;4.85;;;6.90;99.90;;;;;;5014698;28;20045;-71
2024/01/23 07:18:31;;;;;;;;;;;6.90;99.90;;;;;;5031913;28;20045;-70
2024/01/23 07:20:58;;;;;;;33.10;5.05;;;6.90;99.90;;;;;;5022843;28;19920;-71
2024/01/23 07:23:23;;;;;;;39.85;5.47;;;6.90;99.90;;;;;;5026522;28;20061;-70
2024/01/23 07:25:49;;;;;;;30.00;4.93;;;6.90;99.90;;;;;;5041059;28;20041;-71
2024/01/23 07:28:15;;;;;;;26.50;5.10;;;6.80;99.90;;;;;;5021660;28;20029;-71
2024/01/23 07:30:43;;;;;;;30.77;5.35;;;6.80;99.90;;;;;;5042808;28;20037;-71
2024/01/23 07:33:09;;;;;;;26.43;4.07;;;6.80;99.90;;;;;;5007116;28;20036;-70
2024/01/23 07:35:35;;;;;;;28.85;4.47;;;6.80;99.90;;;;;;5021461;28;20057;-71
2024/01/23 07:38:00;;;;;;;21.70;5.47;;;6.80;99.90;;;;;;4998755;28;20060;-71
2024/01/23 07:40:26;;;;;;;44.47;7.65;;;6.80;99.90;;;;;;5001836;28;20029;-71
2024/01/23 07:42:52;;;;;;;36.80;6.38;;;6.80;99.90;;;;;;5035883;28;20228;-70
2024/01/23 07:45:19;;;;;;;20.83;4.13;;;6.80;99.90;;;;;;5016607;28;20037;-71
2024/01/23 07:47:45;;;;;;;35.22;6.78;;;6.80;99.90;;;;;;5008129;28;20046;-69
2024/01/23 07:50:12;;;;;;;35.53;5.63;;;6.80;99.90;;;;;;5022732;28;20091;-74
2024/01/23 07:52:37;;;;;;;32.80;5.05;;;6.80;99.90;;;;;;5005147;28;20374;-71
2024/01/23 07:55:03;;;;;;;36.37;5.60;;;6.80;99.90;;;;;;5005191;28;20095;-72
2024/01/23 07:57:29;;;;;;;24.15;5.30;;;6.80;99.90;;;;;;5004107;28;20049;-71
2024/01/23 07:59:55;;;;;;;33.17;5.05;;;6.70;99.90;;;;;;5027683;28;20412;-72
2024/01/23 08:02:20;;;;;;;35.43;6.07;;;6.60;99.90;;;;;;5027307;28;20315;-71
2024/01/23 08:04:46;;;;;;;33.77;6.63;;;6.60;99.90;;;;;;5010577;28;20042;-70
2024/01/23 08:07:11;;;;;;;33.93;5.37;;;6.50;99.90;;;;;;5027069;28;20378;-70
2024/01/23 08:09:37;;;;;;;27.10;5.13;;;6.50;99.90;;;;;;5025169;28;20096;-70
2024/01/23 08:12:05;;;;;;;30.35;6.03;;;6.40;99.90;;;;;;5026887;28;20053;-70
2024/01/23 08:14:31;;;;;;;27.67;4.40;;;6.40;99.90;;;;;;5011897;28;20052;-70
2024/01/23 08:16:57;;;;;;;29.73;6.70;;;6.40;99.90;;;;;;5026360;28;20042;-70
2024/01/23 08:19:23;;;;;;;27.50;6.10;;;6.50;99.90;;;;;;5024223;28;20029;-70
2024/01/23 08:21:49;;;;;;;27.67;5.68;;;6.60;99.90;;;;;;5024602;28;20398;-70
2024/01/23 08:24:15;;;;;;;34.45;5.28;;;6.70;99.90;;;;;;5024830;28;20038;-70
2024/01/23 08:26:41;;;;;;;29.85;6.15;;;6.80;99.90;;;;;;5024035;28;20482;-70
2024/01/23 08:29:07;;;;;;;24.20;5.13;;;6.90;99.90;;;;;;5025176;28;20107;-70
2024/01/23 08:31:33;;;;;;;24.48;4.60;;;7.10;99.90;;;;;;5024217;28;20564;-65
2024/01/23 08:33:59;;;;;;;35.13;6.53;;;7.30;99.90;;;;;;5023648;28;20224;-64
2024/01/23 08:36:24;;;;;;;27.27;5.93;;;7.40;99.90;;;;;;5023260;28;20048;-65
2024/01/23 08:38:50;;;;;;;30.33;5.22;;;7.50;99.90;;;;;;5023080;28;20045;-65
2024/01/23 08:41:16;;;;;;;26.90;4.90;;;7.70;99.90;;;;;;5023211;28;20036;-66
2024/01/23 08:43:41;;;;;;;25.20;5.13;;;7.90;99.90;;;;;;5024534;28;20860;-65
2024/01/23 08:46:07;;;;;;;37.67;6.40;;;8.10;99.90;;;;;;5022261;28;20444;-64
2024/01/23 08:48:33;;;;;;;28.67;5.07;;;8.20;99.90;;;;;;5023116;28;20041;-65
2024/01/23 08:50:58;;;;;;;31.73;4.60;;;8.40;99.90;;;;;;5024095;28;20037;-65
2024/01/23 08:53:24;;;;;;;43.92;6.82;;;8.70;99.90;;;;;;5016507;28;20391;-66
2024/01/23 08:55:50;;;;;;;37.93;5.87;;;8.90;99.90;;;;;;5006715;28;20706;-71
2024/01/23 08:58:17;;;;;;;26.38;5.47;;;9.00;99.90;;;;;;5040431;28;20505;-69
2024/01/23 09:00:43;;;;;;;30.40;5.40;;;9.30;99.90;;;;;;5022296;28;20049;-69
2024/01/23 09:03:08;;;;;;;25.48;5.07;;;9.50;99.90;;;;;;5033586;28;20041;-69
2024/01/23 09:05:34;;;;;;;29.57;7.33;;;9.70;99.90;;;;;;5023780;28;20360;-70
2024/01/23 09:07:59;;;;;;;33.63;6.30;;;10.00;99.90;;;;;;5025135;28;20045;-70
2024/01/23 09:10:25;;;;;;;21.20;6.13;;;10.30;99.90;;;;;;5021239;28;20685;-69
2024/01/23 09:12:50;;;;;;;24.90;4.57;;;10.60;99.90;;;;;;4989213;28;20077;-69
2024/01/23 09:15:16;;;;;;;26.87;5.57;;;10.70;99.90;;;;;;5014128;28;20049;-69
2024/01/23 09:17:41;;;;;;;24.00;5.07;;;11.00;99.90;;;;;;5022792;28;21081;-69
2024/01/23 09:20:08;;;;;;;35.13;6.57;;;11.20;99.90;;;;;;5024765;28;20033;-69
2024/01/23 09:22:33;;;;;;;22.77;4.28;;;11.20;99.90;;;;;;5023361;28;20374;-69
2024/01/23 09:25:01;;;;;;;25.33;4.75;;;11.20;99.90;;;;;;5028826;28;20049;-69
2024/01/23 09:27:27;;;;;;;24.77;5.45;;;11.50;99.90;;;;;;5023042;28;20501;-69
2024/01/23 09:29:52;;;;;;;20.93;4.20;;;11.80;99.90;;;;;;5013735;28;20060;-70
2024/01/23 09:32:18;;;;;;;27.77;5.73;;;12.10;99.90;;;;;;5017558;28;20347;-70
2024/01/23 09:34:45;;;;;;;22.35;5.93;;;12.20;99.90;;;;;;5037927;28;20120;-69
2024/01/23 09:37:10;;;;;;;27.92;5.20;;;12.30;99.90;;;;;;5018298;28;20049;-69
2024/01/23 09:39:36;;;;;;;20.50;3.97;;;12.50;99.90;;;;;;5023435;28;20045;-70
2024/01/23 09:42:02;;;;;;;22.80;4.82;;;12.80;99.90;;;;;;5023416;28;20300;-69
2024/01/23 09:44:28;;;;;;;25.83;4.32;;;12.90;99.90;;;;;;5017205;28;20393;-69
2024/01/23 09:46:54;;;;;;;23.65;5.20;;;12.90;99.90;;;;;;5022882;28;20041;-69
2024/01/23 09:49:20;;;;;;;24.98;5.55;;;13.10;99.90;;;;;;5023803;28;20103;-68
2024/01/23 09:51:47;;;;;;;22.73;5.55;;;13.40;99.90;;;;;;5021543;28;20482;-69
2024/01/23 09:54:14;;;;;;;27.13;5.35;;;13.50;99.90;;;;;;5024279;28;20117;-69
2024/01/23 09:56:40;;;;;;;31.45;5.28;;;13.70;99.90;;;;;;5004266;28;20064;-69
2024/01/23 09:59:07;;;;;;;27.23;5.60;;;13.80;99.20;;;;;;5006061;28;20489;-69
2024/01/23 10:01:34;;;;;;;21.13;4.75;;;13.80;99.00;;;;;;4986937;28;20033;-69
2024/01/23 10:04:04;;;;;;;38.42;5.68;;;13.70;98.60;;;;;;4987274;28;20049;-68
2024/01/23 10:06:33;;;;;;;29.27;4.80;;;13.30;99.00;;;;;;5003706;28;20312;-69
2024/01/23 10:08:59;;;;;;;29.65;5.53;;;12.60;99.80;;;;;;5004770;28;20683;-69
2024/01/23 10:11:28;;;;;;;23.73;5.72;;;12.40;99.90;;;;;;5038583;28;20039;-68
2024/01/23 10:13:58;;;;;;;28.17;5.22;;;12.30;99.90;;;;;;5022222;28;20516;-69
2024/01/23 10:16:26;;;;;;;25.27;5.70;;;12.30;99.90;;;;;;5003251;28;20053;-69
2024/01/23 10:18:52;;;;;;;25.55;5.72;;;12.20;99.90;;;;;;5022477;28;20651;-69
2024/01/23 10:21:22;;;;;;;27.55;4.80;;;12.00;99.90;;;;;;5032405;28;20059;-69
2024/01/23 10:23:49;;;;;;;30.98;4.68;;;11.80;99.90;;;;;;5003641;28;20559;-68
2024/01/23 10:26:18;;;;;;;26.20;5.30;;;12.00;99.90;;;;;;5003823;28;20156;-68
2024/01/23 10:28:45;;;;;;;23.73;4.43;;;11.80;99.90;;;;;;4987524;28;20045;-70
2024/01/23 10:31:11;;;;;;;31.08;5.35;;;11.80;99.90;;;;;;5001052;28;20434;-69
2024/01/23 10:33:37;;;;;;;24.25;5.05;;;11.80;99.90;;;;;;5004893;28;20048;-69
2024/01/23 10:36:08;;;;;;;22.67;5.03;;;11.50;99.90;;;;;;5038278;28;20069;-69
2024/01/23 10:38:37;;;;;;;23.15;4.07;;;11.10;99.90;;;;;;5023115;28;20038;-69
2024/01/23 10:41:04;;;;;;;27.92;4.50;;;11.00;99.90;;;;;;5003896;28;20611;-69
2024/01/23 10:43:30;;;;;;;22.60;4.32;;;10.80;99.90;;;;;;5022226;28;20048;-68
2024/01/23 10:46:02;;;;;;;34.70;5.03;;;10.80;99.90;;;;;;5013554;28;20037;-69
2024/01/23 10:48:29;;;;;;;33.10;5.32;;;10.70;99.90;;;;;;5004982;28;20168;-69
2024/01/23 10:51:01;;;;;;;24.70;3.90;;;10.70;99.90;;;;;;5023880;28;20053;-69
2024/01/23 10:53:49;;;;;;;32.05;4.45;;;10.80;99.90;;;;;;5036189;28;20044;-68
2024/01/23 10:56:17;;;;;;;29.02;5.50;;;11.00;99.90;;;;;;5039181;28;20545;-70
2024/01/23 10:58:47;;;;;;;28.20;5.20;;;10.90;99.90;;;;;;5005161;28;20038;-68
2024/01/23 11:01:14;;;;;;;27.30;6.35;;;10.90;99.90;;;;;;5038982;28;20503;-70
2024/01/23 11:03:40;;;;;;;28.17;5.28;;;10.70;99.90;;;;;;4990662;28;20406;-69
2024/01/23 11:06:22;;;;;;;26.58;4.90;;;10.80;99.90;;;;;;5007734;28;20102;-70
2024/01/23 11:09:07;;;;;;;30.98;5.18;;;11.00;99.90;;;;;;5023494;28;20520;-70
2024/01/23 11:11:44;;;;;;;28.88;4.82;;;11.20;99.90;;;;;;5022847;28;20049;-68
2024/01/23 11:14:35;;;;;;;24.23;4.45;;;11.20;99.90;;;;;;5023254;28;20042;-68
2024/01/23 11:17:02;;;;;;;25.92;4.68;;;11.10;99.90;;;;;;5023374;28;20041;-70
2024/01/23 11:19:28;;;;;;;24.20;4.38;;;11.10;99.90;;;;;;5004425;28;20048;-68
2024/01/23 11:22:03;;;;;;;30.25;5.22;;;11.00;99.90;;;;;;5012530;28;20117;-68
2024/01/23 11:24:43;;;;;;;36.08;6.60;;;10.80;99.90;;;;;;5009984;28;20195;-68
2024/01/23 11:27:17;;;;;;;39.15;5.55;;;10.70;99.90;;;;;;5022640;28;20495;-68
2024/01/23 11:29:44;;;;;;;28.83;5.07;;;10.90;99.90;;;;;;5028056;28;20061;-68
2024/01/23 11:32:20;;;;;;;32.35;6.00;;;10.90;99.90;;;;;;5012418;28;20060;-69
2024/01/23 11:34:46;;;;;;;20.83;4.25;;;10.90;99.90;;;;;;5043562;28;20044;-69
2024/01/23 11:37:31;;;;;;;;;;;10.80;99.90;;;;;;5025384;28;20049;-69
2024/01/23 11:39:58;;;;;;;30.83;5.32;;;10.80;99.90;;;;;;5029071;28;19964;-68
2024/01/23 11:42:40;;;;;;;27.17;4.28;;;10.90;99.90;;;;;;5019555;28;20051;-71
2024/01/23 11:45:32;;;;;;;30.30;5.97;;;10.90;99.90;;;;;;4995635;28;20030;-71
2024/01/23 11:47:59;;;;;;;17.45;4.72;;;10.90;99.90;;;;;;5026109;28;20072;-71
2024/01/23 11:50:27;;;;;;;24.90;4.70;;;10.80;99.90;;;;;;5013427;28;20037;-74
2024/01/23 11:52:54;;;;;;;30.17;5.55;;;10.60;99.90;;;;;;5009524;28;20045;-71
2024/01/23 11:55:20;;;;;;;28.45;4.40;;;10.40;99.90;;;;;;5037419;28;20042;-73
2024/01/23 11:57:47;;;;;;;;;;;10.10;99.90;;;;;;5025572;28;20060;-73
2024/01/23 12:00:14;;;;;;;27.27;4.47;;;10.00;99.90;;;;;;5027279;28;19917;-71
2024/01/23 12:02:40;;;;;;;36.58;6.57;;;9.80;99.90;;;;;;4991201;28;20076;-71
2024/01/23 12:05:06;;;;;;;25.80;4.40;;;9.70;99.90;;;;;;5008197;28;20051;-71
2024/01/23 12:07:37;;;;;;;36.15;5.45;;;9.60;99.90;;;;;;5025363;28;20116;-74
2024/01/23 12:10:04;;;;;;;31.65;4.40;;;9.60;99.90;;;;;;5025120;28;20064;-74
2024/01/23 12:12:30;;;;;;;28.60;4.85;;;9.60;99.90;;;;;;5009149;28;20045;-71
2024/01/23 12:14:56;;;;;;;29.15;5.40;;;9.60;99.90;;;;;;5039361;28;20041;-71
2024/01/23 12:17:22;;;;;;;23.02;4.40;;;9.60;99.90;;;;;;4993014;28;20040;-71
2024/01/23 12:19:48;;;;;;;31.77;6.00;;;9.60;99.90;;;;;;5030971;28;20038;-70
2024/01/23 12:22:15;;;;;;;29.98;5.47;;;9.60;99.90;;;;;;5024101;28;20037;-70
2024/01/23 12:24:42;;;;;;;33.13;6.07;;;9.80;99.90;;;;;;5035830;28;20029;-71
2024/01/23 12:27:11;;;;;;;26.33;4.88;;;9.90;99.90;;;;;;5022564;28;20041;-71
2024/01/23 12:29:41;;;;;;;29.83;3.97;;;10.10;99.90;;;;;;5024377;28;20044;-71
2024/01/23 12:32:10;;;;;;;16.25;3.50;;;10.20;99.90;;;;;;5022900;28;20045;-71
2024/01/23 12:34:36;;;;;;;26.73;5.10;;;10.50;99.90;;;;;;5022215;28;20065;-70
2024/01/23 12:37:03;;;;;;;24.70;3.60;;;10.80;99.90;;;;;;5036043;28;20041;-71
2024/01/23 12:39:30;;;;;;;29.83;5.43;;;11.30;99.90;;;;;;5027431;28;20046;-71
2024/01/23 12:42:00;;;;;;;25.52;4.50;;;11.70;99.90;;;;;;5024786;28;20513;-70
2024/01/23 12:44:26;;;;;;;30.05;5.35;;;12.00;99.90;;;;;;5010110;28;20026;-70